Time;durP1;ratioP1;P1;durP2;ratioP2;P2;SDS_P1;SDS_P2;PMS_P1;PMS_P2;Temp;Humidity;BMP_temperature;BMP_pressure;BME280_temperature;BME280_humidity;BME280_pressure;Samples;Min_cycle;Max_cycle;Signal;HPM_P1;HPM_P2
2022/03/09 00:00:52;;;;;;;1.90;1.45;;;3.90;91.10;;;;;;5033817;28;20151;-73
2022/03/09 00:03:18;;;;;;;3.45;1.50;;;3.90;91.20;;;;;;5034359;28;20492;-73
2022/03/09 00:05:44;;;;;;;2.40;1.50;;;4.00;91.30;;;;;;5034959;28;20052;-72
2022/03/09 00:08:09;;;;;;;2.83;1.50;;;4.70;91.70;;;;;;5017400;28;20091;-73
2022/03/09 00:10:35;;;;;;;2.83;1.55;;;3.80;91.70;;;;;;5034861;28;20045;-73
2022/03/09 00:13:01;;;;;;;2.25;1.60;;;4.10;92.00;;;;;;5032505;28;20127;-73
2022/03/09 00:15:27;;;;;;;2.38;1.85;;;3.80;92.10;;;;;;5035562;28;20047;-73
2022/03/09 00:17:52;;;;;;;3.78;2.78;;;3.70;92.30;;;;;;5033411;28;20103;-73
2022/03/09 00:20:18;;;;;;;6.35;3.63;;;3.80;92.40;;;;;;5034594;28;20042;-73
2022/03/09 00:22:44;;;;;;;3.92;3.28;;;4.70;92.50;;;;;;5016721;28;20096;-73
2022/03/09 00:25:09;;;;;;;5.15;3.50;;;3.90;92.60;;;;;;5034616;28;20132;-73
2022/03/09 00:27:35;;;;;;;4.90;3.50;;;3.80;92.80;;;;;;5016980;28;20053;-73
2022/03/09 00:30:02;;;;;;;5.53;3.72;;;3.80;92.90;;;;;;5034531;28;20041;-73
2022/03/09 00:32:28;;;;;;;5.78;3.78;;;3.60;93.10;;;;;;5034442;28;20049;-73
2022/03/09 00:34:54;;;;;;;4.75;3.28;;;3.50;93.10;;;;;;5032905;28;20056;-73
2022/03/09 00:37:20;;;;;;;4.32;2.78;;;3.50;92.80;;;;;;5034339;28;20049;-73
2022/03/09 00:39:46;;;;;;;4.43;2.28;;;3.50;92.80;;;;;;5034259;28;20135;-73
2022/03/09 00:42:11;;;;;;;3.92;2.28;;;4.10;92.90;;;;;;5034212;28;20088;-73
2022/03/09 00:44:37;;;;;;;3.90;2.15;;;4.20;92.90;;;;;;5034059;28;20077;-73
2022/03/09 00:47:04;;;;;;;2.95;2.03;;;3.40;92.70;;;;;;5034010;28;20097;-73
2022/03/09 00:49:30;;;;;;;3.50;1.70;;;3.40;92.90;;;;;;5034952;28;20041;-73
2022/03/09 00:51:55;;;;;;;3.78;1.92;;;3.40;93.20;;;;;;5032789;28;20503;-73
2022/03/09 00:54:21;;;;;;;3.50;1.85;;;3.40;93.50;;;;;;5034080;28;20049;-73
2022/03/09 00:56:47;;;;;;;3.95;2.20;;;3.30;93.20;;;;;;5033715;28;20041;-73
2022/03/09 00:59:13;;;;;;;2.60;1.77;;;3.30;93.40;;;;;;5032845;28;20060;-73
2022/03/09 01:01:39;;;;;;;3.67;2.08;;;4.20;93.90;;;;;;5032730;28;20099;-73
2022/03/09 01:04:05;;;;;;;2.60;1.60;;;3.90;93.80;;;;;;5034519;28;20128;-73
2022/03/09 01:06:31;;;;;;;2.83;1.80;;;3.30;93.70;;;;;;5016490;28;20136;-73
2022/03/09 01:08:57;;;;;;;3.53;1.90;;;3.50;93.80;;;;;;5016533;28;20054;-73
2022/03/09 01:11:23;;;;;;;3.28;1.80;;;3.20;93.90;;;;;;5016371;28;20045;-73
2022/03/09 01:13:49;;;;;;;4.00;1.67;;;3.90;94.20;;;;;;5033730;28;20413;-73
2022/03/09 01:16:14;;;;;;;3.40;1.70;;;3.20;93.80;;;;;;5033816;28;20042;-73
2022/03/09 01:18:40;;;;;;;2.67;1.95;;;3.50;93.80;;;;;;5033734;28;20049;-73
2022/03/09 01:21:06;;;;;;;3.35;2.22;;;3.40;94.00;;;;;;5033478;28;20098;-72
2022/03/09 01:23:32;;;;;;;3.53;2.30;;;3.00;94.10;;;;;;5034016;28;20401;-73
2022/03/09 01:25:58;;;;;;;2.55;1.85;;;3.20;94.30;;;;;;5033639;28;20046;-73
2022/03/09 01:28:24;;;;;;;4.32;1.60;;;4.40;95.00;;;;;;5033626;28;20050;-73
2022/03/09 01:30:50;;;;;;;4.18;2.05;;;3.10;94.90;;;;;;5032560;28;20133;-73
2022/03/09 01:33:16;;;;;;;3.78;2.13;;;3.20;94.40;;;;;;5033765;28;20389;-73
2022/03/09 01:35:41;;;;;;;4.45;2.10;;;3.80;94.70;;;;;;5033542;28;20046;-73
2022/03/09 01:38:07;;;;;;;5.43;2.20;;;3.90;95.20;;;;;;5033502;28;20053;-73
2022/03/09 01:40:33;;;;;;;3.83;2.13;;;3.30;95.80;;;;;;5032267;28;20440;-73
2022/03/09 01:42:59;;;;;;;4.28;2.47;;;3.40;96.10;;;;;;5016201;28;20049;-73
2022/03/09 01:45:25;;;;;;;2.78;1.98;;;2.90;95.80;;;;;;5033716;28;20076;-73
2022/03/09 01:47:51;;;;;;;3.38;2.10;;;2.80;96.10;;;;;;5031988;28;20497;-73
2022/03/09 01:50:17;;;;;;;4.13;1.80;;;3.60;96.30;;;;;;5034269;28;20121;-73
2022/03/09 01:52:43;;;;;;;3.28;2.20;;;3.10;96.10;;;;;;5033455;28;20446;-73
2022/03/09 01:55:10;;;;;;;3.15;2.22;;;3.50;96.20;;;;;;4999736;28;20132;-73
2022/03/09 01:57:36;;;;;;;3.70;2.08;;;3.10;96.40;;;;;;5032222;28;20052;-73
2022/03/09 02:00:04;;;;;;;3.67;2.13;;;2.80;96.10;;;;;;5033339;28;20041;-73
2022/03/09 02:02:30;;;;;;;5.10;2.60;;;2.70;96.00;;;;;;5033253;28;20152;-73
2022/03/09 02:04:56;;;;;;;3.42;2.40;;;3.40;96.40;;;;;;5032921;28;20486;-72
2022/03/09 02:10:08;;;;;;;4.18;2.58;;;3.10;96.20;;;;;;5032964;28;20046;-73
2022/03/09 02:12:34;;;;;;;3.67;2.53;;;2.70;96.60;;;;;;5033115;28;20057;-72
2022/03/09 02:15:01;;;;;;;3.95;2.20;;;2.60;96.80;;;;;;5033043;28;20124;-72
2022/03/09 02:17:28;;;;;;;4.28;2.00;;;2.70;97.00;;;;;;5015404;28;20481;-72
2022/03/09 02:19:55;;;;;;;4.43;2.45;;;3.00;97.20;;;;;;5032433;28;20064;-72
2022/03/09 02:22:36;;;;;;;4.38;2.58;;;3.60;97.30;;;;;;5031775;28;20053;-72
2022/03/09 02:25:05;;;;;;;4.03;2.67;;;3.20;97.20;;;;;;5032105;28;20093;-72
2022/03/09 02:27:30;;;;;;;3.92;2.55;;;2.60;97.00;;;;;;5032174;28;20041;-72
2022/03/09 02:29:56;;;;;;;4.80;2.72;;;3.30;97.40;;;;;;5032425;28;20375;-72
2022/03/09 02:32:23;;;;;;;2.88;2.38;;;2.80;97.30;;;;;;5031694;28;20057;-73
2022/03/09 02:34:49;;;;;;;5.20;3.10;;;4.00;97.60;;;;;;5032823;28;20060;-73
2022/03/09 02:37:15;;;;;;;3.30;2.40;;;3.80;97.40;;;;;;5019158;28;20061;-73
2022/03/09 02:39:41;;;;;;;3.33;2.30;;;2.50;97.30;;;;;;5035636;28;20053;-72
2022/03/09 02:42:08;;;;;;;5.65;2.50;;;2.00;97.10;;;;;;5035493;28;20041;-72
2022/03/09 02:44:33;;;;;;;4.68;2.58;;;2.60;97.40;;;;;;5019453;28;20049;-72
2022/03/09 02:46:59;;;;;;;5.47;2.80;;;2.50;97.50;;;;;;5036433;28;20059;-72
2022/03/09 02:49:25;;;;;;;3.15;2.35;;;2.50;97.50;;;;;;5036392;28;20045;-72
2022/03/09 02:51:51;;;;;;;4.35;2.53;;;2.80;97.80;;;;;;5036367;28;20129;-73
2022/03/09 02:54:17;;;;;;;4.47;2.65;;;3.00;97.80;;;;;;5035998;28;20128;-72
2022/03/09 02:56:43;;;;;;;5.28;2.92;;;2.60;97.90;;;;;;5036243;28;20045;-72
2022/03/09 02:59:09;;;;;;;5.03;2.78;;;2.60;97.90;;;;;;5036078;28;20108;-72
2022/03/09 03:01:35;;;;;;;4.53;2.53;;;2.70;98.00;;;;;;5034931;28;20049;-72
2022/03/09 03:04:01;;;;;;;4.22;2.45;;;2.50;97.80;;;;;;5035262;28;20045;-72
2022/03/09 03:06:27;;;;;;;4.25;2.80;;;2.80;97.90;;;;;;5036144;28;20477;-72
2022/03/09 03:08:53;;;;;;;3.90;2.50;;;2.70;97.80;;;;;;5035054;28;20493;-72
2022/03/09 03:11:19;;;;;;;5.63;2.92;;;2.90;97.90;;;;;;5036575;28;20081;-72
2022/03/09 03:13:45;;;;;;;6.72;2.95;;;2.50;98.10;;;;;;5035472;28;20092;-72
2022/03/09 03:16:11;;;;;;;5.90;2.60;;;2.90;98.10;;;;;;5035992;28;20049;-72
2022/03/09 03:18:37;;;;;;;5.35;3.00;;;3.10;98.20;;;;;;5035851;28;20049;-72
2022/03/09 03:21:04;;;;;;;4.15;2.25;;;2.40;98.20;;;;;;5035745;28;20041;-73
2022/03/09 03:23:31;;;;;;;3.60;2.33;;;3.60;98.50;;;;;;5034178;28;20425;-72
2022/03/09 03:25:58;;;;;;;5.00;3.05;;;3.80;98.50;;;;;;5035072;28;20045;-72
2022/03/09 03:28:25;;;;;;;4.18;3.05;;;2.60;98.40;;;;;;5034521;28;20084;-72
2022/03/09 03:30:51;;;;;;;5.55;3.13;;;2.30;98.70;;;;;;5035472;28;20061;-72
2022/03/09 03:33:18;;;;;;;5.97;2.80;;;3.00;99.10;;;;;;5036393;28;20084;-72
2022/03/09 03:35:45;;;;;;;8.10;3.33;;;2.50;99.00;;;;;;5034852;28;20410;-72
2022/03/09 03:38:11;;;;;;;4.60;3.38;;;2.70;99.00;;;;;;5034551;28;20056;-73
2022/03/09 03:40:38;;;;;;;6.82;2.80;;;2.00;99.10;;;;;;5018750;28;20156;-73
2022/03/09 03:43:05;;;;;;;4.68;2.90;;;2.20;99.30;;;;;;5034739;28;20053;-73
2022/03/09 03:45:31;;;;;;;4.13;2.63;;;3.80;99.80;;;;;;5033761;28;20489;-72
2022/03/09 03:47:57;;;;;;;5.07;3.33;;;2.30;99.40;;;;;;5034362;28;20495;-72
2022/03/09 03:50:23;;;;;;;6.82;3.20;;;2.90;99.60;;;;;;5034987;28;20481;-72
2022/03/09 03:52:49;;;;;;;5.03;3.03;;;2.20;99.40;;;;;;5035223;28;20092;-72
2022/03/09 03:55:15;;;;;;;4.45;2.75;;;2.10;99.70;;;;;;5034058;28;20084;-72
2022/03/09 03:57:41;;;;;;;4.40;2.85;;;3.40;99.50;;;;;;5035154;28;20124;-72
2022/03/09 04:00:08;;;;;;;5.97;2.80;;;2.20;99.30;;;;;;5035373;28;20394;-72
2022/03/09 04:02:34;;;;;;;5.28;3.20;;;2.30;99.30;;;;;;5017231;28;20096;-72
2022/03/09 04:05:00;;;;;;;4.97;3.33;;;2.10;99.30;;;;;;5035007;28;20042;-72
2022/03/09 04:07:26;;;;;;;5.78;3.40;;;2.40;99.20;;;;;;5017513;28;20045;-72
2022/03/09 04:09:53;;;;;;;4.30;3.00;;;2.80;99.20;;;;;;5017462;28;20508;-72
2022/03/09 04:12:20;;;;;;;4.03;2.83;;;2.60;99.20;;;;;;5033634;28;20052;-72
2022/03/09 04:14:45;;;;;;;4.63;3.03;;;2.10;99.40;;;;;;5033603;28;20052;-72
2022/03/09 04:17:11;;;;;;;5.22;2.80;;;2.20;99.30;;;;;;5033854;28;20045;-72
2022/03/09 04:19:37;;;;;;;8.57;3.38;;;2.30;99.30;;;;;;5035548;28;20047;-72
2022/03/09 04:22:03;;;;;;;4.75;2.90;;;2.30;99.30;;;;;;5034384;28;20544;-72
2022/03/09 04:24:29;;;;;;;4.82;3.67;;;2.00;99.20;;;;;;5034459;28;20093;-72
2022/03/09 04:26:54;;;;;;;5.82;3.40;;;2.80;99.30;;;;;;5033116;28;20142;-72
2022/03/09 04:29:20;;;;;;;4.70;3.00;;;2.00;99.30;;;;;;5033365;28;20049;-72
2022/03/09 04:31:46;;;;;;;6.22;3.05;;;1.80;99.50;;;;;;5033498;28;20049;-72
2022/03/09 04:34:11;;;;;;;5.45;3.55;;;2.50;99.90;;;;;;5033266;28;20053;-72
2022/03/09 04:36:37;;;;;;;5.80;3.30;;;2.30;99.90;;;;;;5033245;28;20053;-72
2022/03/09 04:39:04;;;;;;;4.45;3.22;;;1.90;99.90;;;;;;5034375;28;20045;-72
2022/03/09 04:41:30;;;;;;;5.50;3.35;;;1.90;99.90;;;;;;5034252;28;20099;-72
2022/03/09 04:43:56;;;;;;;5.00;2.80;;;1.90;99.90;;;;;;5033192;28;20054;-72
2022/03/09 04:46:22;;;;;;;4.20;3.30;;;1.80;99.90;;;;;;5034240;28;20049;-72
2022/03/09 04:48:49;;;;;;;5.03;3.25;;;1.80;99.90;;;;;;5034810;28;20049;-72
2022/03/09 04:51:15;;;;;;;5.57;2.90;;;1.60;99.90;;;;;;5035284;28;20119;-72
2022/03/09 04:53:41;;;;;;;5.00;3.35;;;1.80;99.90;;;;;;5033196;28;20053;-71
2022/03/09 04:56:07;;;;;;;4.82;3.08;;;1.70;99.90;;;;;;5034067;28;20110;-71
2022/03/09 04:58:33;;;;;;;6.43;3.67;;;1.80;99.90;;;;;;5033800;28;20045;-71
2022/03/09 05:00:59;;;;;;;5.90;3.50;;;2.40;99.90;;;;;;5033945;28;20184;-72
2022/03/09 05:03:24;;;;;;;5.43;3.60;;;1.50;99.90;;;;;;5033934;28;20045;-72
2022/03/09 05:05:50;;;;;;;5.65;3.50;;;2.00;99.90;;;;;;5033892;28;20045;-72
2022/03/09 05:08:16;;;;;;;4.95;3.35;;;2.10;99.90;;;;;;5016763;28;20095;-72
2022/03/09 05:10:41;;;;;;;5.50;3.60;;;1.80;99.90;;;;;;5032390;28;20045;-72
2022/03/09 05:13:07;;;;;;;6.93;4.10;;;1.90;99.90;;;;;;5032773;28;20052;-72
2022/03/09 05:15:33;;;;;;;5.25;3.35;;;1.50;99.90;;;;;;5032847;28;20052;-72
2022/03/09 05:17:59;;;;;;;5.88;3.42;;;1.60;99.90;;;;;;5033329;28;20053;-71
2022/03/09 05:20:25;;;;;;;6.70;3.30;;;2.40;99.90;;;;;;5034180;28;20495;-71
2022/03/09 05:22:51;;;;;;;5.57;3.47;;;1.50;99.90;;;;;;5033271;28;20057;-71
2022/03/09 05:25:19;;;;;;;5.20;3.65;;;1.50;99.90;;;;;;5032466;28;20053;-71
2022/03/09 05:27:45;;;;;;;6.95;3.35;;;1.40;99.90;;;;;;5033654;28;20104;-71
2022/03/09 05:30:11;;;;;;;6.43;3.28;;;2.30;99.90;;;;;;5033586;28;20092;-72
2022/03/09 05:32:38;;;;;;;7.75;3.67;;;1.50;99.90;;;;;;5034402;28;20045;-72
2022/03/09 05:35:05;;;;;;;5.60;3.58;;;1.40;99.90;;;;;;5033540;28;20053;-71
2022/03/09 05:37:44;;;;;;;5.97;3.63;;;1.40;99.90;;;;;;5033511;28;20041;-71
2022/03/09 05:40:10;;;;;;;5.28;4.00;;;1.40;99.90;;;;;;5033631;28;20048;-71
2022/03/09 05:42:37;;;;;;;7.20;4.03;;;1.40;99.90;;;;;;5032126;28;20085;-71
2022/03/09 05:45:04;;;;;;;5.90;3.90;;;1.30;99.90;;;;;;5033207;28;20478;-71
2022/03/09 05:47:30;;;;;;;6.47;3.65;;;1.40;99.90;;;;;;5033451;28;20046;-72
2022/03/09 05:49:55;;;;;;;6.63;3.97;;;2.00;99.90;;;;;;5033394;28;20470;-71
2022/03/09 05:52:21;;;;;;;7.05;3.70;;;1.50;99.90;;;;;;5032755;28;20472;-71
2022/03/09 05:54:47;;;;;;;7.35;4.32;;;1.20;99.90;;;;;;5033051;28;20041;-71
2022/03/09 05:57:13;;;;;;;5.40;3.95;;;1.30;99.90;;;;;;5033850;28;20100;-71
2022/03/09 05:59:39;;;;;;;8.70;3.85;;;1.10;99.90;;;;;;5033326;28;20184;-72
2022/03/09 06:02:04;;;;;;;5.95;4.00;;;1.60;99.90;;;;;;5015647;28;20525;-72
2022/03/09 06:04:30;;;;;;;6.75;3.70;;;1.30;99.90;;;;;;5033348;28;20472;-72
2022/03/09 06:06:56;;;;;;;7.80;4.53;;;1.50;99.90;;;;;;4999550;28;20045;-72
2022/03/09 06:09:21;;;;;;;7.90;3.78;;;1.40;99.90;;;;;;5032442;28;20478;-71
2022/03/09 06:11:47;;;;;;;7.25;4.43;;;1.50;99.90;;;;;;5037180;28;20043;-71
2022/03/09 06:14:13;;;;;;;5.55;3.53;;;2.40;99.90;;;;;;5036996;28;20563;-71
2022/03/09 06:16:38;;;;;;;6.45;4.13;;;2.90;99.90;;;;;;5037044;28;20045;-72
2022/03/09 06:19:04;;;;;;;5.72;4.30;;;1.70;99.90;;;;;;5036983;28;20064;-71
2022/03/09 06:21:30;;;;;;;6.13;3.88;;;2.20;99.90;;;;;;5036330;28;20061;-71
2022/03/09 06:23:56;;;;;;;5.63;3.55;;;1.40;99.90;;;;;;5037463;28;20136;-71
2022/03/09 06:26:21;;;;;;;7.15;4.13;;;2.00;99.90;;;;;;5035607;28;20461;-71
2022/03/09 06:28:47;;;;;;;6.78;4.50;;;2.20;99.90;;;;;;5036524;28;20049;-71
2022/03/09 06:31:13;;;;;;;6.45;3.78;;;1.70;99.90;;;;;;5036775;28;20049;-72
2022/03/09 06:33:38;;;;;;;5.53;4.45;;;1.40;99.90;;;;;;5035455;28;20045;-72
2022/03/09 06:36:06;;;;;;;8.82;4.20;;;1.60;99.90;;;;;;5036705;28;20045;-72
2022/03/09 06:38:33;;;;;;;7.35;4.10;;;1.50;99.90;;;;;;5036715;28;20460;-72
2022/03/09 06:40:59;;;;;;;6.35;4.32;;;1.50;99.90;;;;;;5036551;28;20124;-71
2022/03/09 06:43:24;;;;;;;7.22;4.30;;;2.20;99.90;;;;;;5018389;28;20088;-72
2022/03/09 06:45:50;;;;;;;6.72;4.18;;;1.60;99.90;;;;;;5036548;28;20046;-72
2022/03/09 06:48:16;;;;;;;7.05;4.50;;;2.70;99.90;;;;;;5036476;28;20045;-71
2022/03/09 06:50:42;;;;;;;7.38;4.60;;;1.90;99.90;;;;;;5018917;28;20095;-72
2022/03/09 06:53:08;;;;;;;6.63;4.32;;;1.60;99.90;;;;;;5035468;28;20051;-71
2022/03/09 06:55:34;;;;;;;4.95;3.95;;;2.20;99.90;;;;;;5036887;28;20119;-71
2022/03/09 06:57:59;;;;;;;8.15;4.35;;;1.70;99.90;;;;;;5036279;28;20041;-71
2022/03/09 07:00:25;;;;;;;7.25;4.18;;;2.40;99.90;;;;;;5035323;28;20072;-71
2022/03/09 07:02:51;;;;;;;7.60;3.97;;;1.70;99.90;;;;;;5036560;28;20045;-72
2022/03/09 07:05:17;;;;;;;8.60;4.47;;;3.00;99.90;;;;;;5035388;28;20119;-71
2022/03/09 07:07:43;;;;;;;8.35;4.00;;;2.20;99.90;;;;;;5036336;28;20379;-71
2022/03/09 07:10:12;;;;;;;8.15;4.00;;;2.00;99.90;;;;;;5036361;28;20049;-71
2022/03/09 07:12:39;;;;;;;7.05;3.92;;;2.60;99.90;;;;;;5035154;28;20132;-71
2022/03/09 07:15:05;;;;;;;7.82;4.50;;;2.70;99.90;;;;;;5035402;28;20052;-72
2022/03/09 07:17:31;;;;;;;8.55;4.10;;;2.00;99.90;;;;;;5034782;28;20517;-71
2022/03/09 07:19:56;;;;;;;5.70;3.65;;;2.30;99.90;;;;;;5034948;28;20171;-71
2022/03/09 07:22:22;;;;;;;6.03;4.10;;;2.30;99.90;;;;;;5035877;28;20084;-71
2022/03/09 07:24:48;;;;;;;6.60;3.95;;;2.30;99.90;;;;;;5034891;28;20128;-69
2022/03/09 07:27:14;;;;;;;7.15;4.20;;;3.10;99.90;;;;;;5034641;28;20515;-71
2022/03/09 07:29:41;;;;;;;7.60;3.95;;;2.40;99.90;;;;;;5034712;28;20041;-71
2022/03/09 07:32:08;;;;;;;7.53;4.32;;;2.80;99.90;;;;;;5035810;28;20049;-71
2022/03/09 07:34:35;;;;;;;5.30;3.33;;;2.30;99.90;;;;;;5035803;28;20054;-70
2022/03/09 07:37:00;;;;;;;5.57;3.83;;;2.20;99.90;;;;;;5034571;28;20138;-72
2022/03/09 07:39:28;;;;;;;6.85;4.03;;;3.40;99.90;;;;;;5034554;28;20099;-72
2022/03/09 07:41:55;;;;;;;5.70;3.65;;;2.30;99.90;;;;;;5035527;28;20050;-72
2022/03/09 07:44:21;;;;;;;6.28;3.95;;;3.20;99.90;;;;;;5035173;28;20365;-71
2022/03/09 07:46:47;;;;;;;8.40;3.85;;;2.50;99.90;;;;;;5034585;28;20088;-72
2022/03/09 07:49:13;;;;;;;7.82;4.72;;;4.60;99.90;;;;;;5035481;28;20132;-72
2022/03/09 07:51:39;;;;;;;5.68;3.58;;;3.00;99.90;;;;;;5034460;28;20136;-72
2022/03/09 07:54:06;;;;;;;6.00;3.55;;;2.80;99.90;;;;;;5035369;28;20048;-71
2022/03/09 07:56:32;;;;;;;6.40;3.80;;;3.80;99.90;;;;;;5035903;28;20053;-70
2022/03/09 07:58:58;;;;;;;5.47;3.85;;;2.80;99.90;;;;;;5034299;28;20052;-71
2022/03/09 08:01:24;;;;;;;8.70;3.78;;;2.90;99.90;;;;;;5034114;28;20041;-70
2022/03/09 08:03:49;;;;;;;6.40;3.63;;;3.10;99.90;;;;;;5034183;28;20052;-72
2022/03/09 08:06:15;;;;;;;8.30;4.10;;;3.00;99.90;;;;;;5034804;28;20421;-71
2022/03/09 08:08:41;;;;;;;8.63;3.60;;;4.20;99.90;;;;;;5035892;28;20045;-70
2022/03/09 08:11:06;;;;;;;5.53;3.53;;;3.60;99.90;;;;;;5035060;28;20498;-71
2022/03/09 08:13:32;;;;;;;5.70;3.75;;;2.90;99.90;;;;;;5035713;28;20466;-71
2022/03/09 08:15:58;;;;;;;6.72;3.45;;;3.10;99.90;;;;;;5033704;28;20089;-71
2022/03/09 08:18:23;;;;;;;7.97;4.70;;;3.70;99.90;;;;;;5033904;28;20064;-70
2022/03/09 08:20:49;;;;;;;8.35;5.10;;;3.40;99.90;;;;;;5034749;28;20390;-71
2022/03/09 08:23:15;;;;;;;7.75;4.15;;;3.60;99.90;;;;;;5033106;28;20128;-70
2022/03/09 08:25:40;;;;;;;6.30;3.63;;;3.50;99.90;;;;;;5034991;28;20061;-71
2022/03/09 08:28:06;;;;;;;6.32;3.72;;;4.20;99.90;;;;;;5033505;28;20397;-71
2022/03/09 08:30:32;;;;;;;7.28;3.65;;;3.60;99.90;;;;;;5017173;28;20049;-71
2022/03/09 08:32:58;;;;;;;6.60;3.70;;;3.70;99.90;;;;;;5032992;28;20049;-71
2022/03/09 08:35:23;;;;;;;5.03;3.50;;;4.40;99.90;;;;;;5035388;28;20132;-71
2022/03/09 08:37:49;;;;;;;6.90;3.45;;;3.90;99.80;;;;;;5034588;28;20485;-71
2022/03/09 08:40:15;;;;;;;6.13;3.70;;;4.80;99.40;;;;;;5034475;28;20037;-71
2022/03/09 08:42:40;;;;;;;7.88;3.80;;;4.30;98.80;;;;;;5034093;28;20045;-72
2022/03/09 08:45:06;;;;;;;4.70;3.33;;;4.20;98.60;;;;;;5033723;28;20053;-72
2022/03/09 08:47:32;;;;;;;5.90;3.65;;;4.40;98.30;;;;;;5031796;28;20103;-71
2022/03/09 08:49:58;;;;;;;6.22;3.60;;;4.60;98.10;;;;;;5033273;28;20041;-72
2022/03/09 08:52:24;;;;;;;4.97;3.17;;;5.00;97.70;;;;;;5016102;28;20128;-71
2022/03/09 08:54:56;;;;;;;5.70;3.08;;;5.10;97.40;;;;;;5015968;28;20132;-72
2022/03/09 08:57:22;;;;;;;7.97;3.47;;;4.50;97.10;;;;;;5033412;28;20492;-71
2022/03/09 08:59:48;;;;;;;5.78;3.53;;;5.90;97.20;;;;;;5033681;28;20041;-72
2022/03/09 09:02:14;;;;;;;6.18;3.63;;;4.70;96.20;;;;;;5033068;28;20049;-72
2022/03/09 09:04:40;;;;;;;6.07;3.35;;;3.50;95.70;;;;;;5033163;28;20053;-72
2022/03/09 09:07:06;;;;;;;5.35;3.33;;;4.80;95.80;;;;;;5033426;28;20045;-71
2022/03/09 09:09:35;;;;;;;5.78;3.38;;;5.60;95.50;;;;;;5033215;28;20045;-71
2022/03/09 09:12:01;;;;;;;7.30;3.53;;;5.20;95.20;;;;;;5016025;28;20049;-71
2022/03/09 09:14:28;;;;;;;4.57;3.05;;;5.00;94.80;;;;;;5033151;28;20120;-71
2022/03/09 09:16:54;;;;;;;24.02;12.27;;;5.40;94.40;;;;;;5033122;28;20077;-71
2022/03/09 09:19:20;;;;;;;7.40;4.00;;;5.50;94.30;;;;;;5033239;28;20092;-71
2022/03/09 09:21:47;;;;;;;5.90;3.58;;;5.20;94.20;;;;;;5032776;28;20080;-71
2022/03/09 09:24:14;;;;;;;6.68;3.17;;;5.30;93.90;;;;;;5031520;28;20269;-70
2022/03/09 09:26:40;;;;;;;9.43;3.58;;;5.90;93.70;;;;;;5032174;28;20049;-71
2022/03/09 09:29:07;;;;;;;5.05;3.58;;;5.40;93.30;;;;;;5031880;28;20503;-71
2022/03/09 09:31:33;;;;;;;6.50;3.47;;;5.90;93.10;;;;;;5031960;28;20044;-71
2022/03/09 09:33:59;;;;;;;6.18;3.22;;;5.50;92.70;;;;;;5032745;28;20077;-71
2022/03/09 09:36:25;;;;;;;6.70;3.50;;;5.50;92.50;;;;;;5032733;28;20441;-71
2022/03/09 09:38:51;;;;;;;6.55;3.38;;;5.70;92.00;;;;;;5033644;28;20381;-71
2022/03/09 09:41:19;;;;;;;5.75;3.38;;;5.70;91.80;;;;;;5033302;28;20033;-74
2022/03/09 09:43:46;;;;;;;6.93;3.55;;;6.20;91.90;;;;;;5032361;28;20037;-72
2022/03/09 09:46:13;;;;;;;7.65;3.47;;;6.10;91.90;;;;;;5036020;28;20060;-73
2022/03/09 09:48:39;;;;;;;6.32;3.92;;;5.70;91.50;;;;;;5037589;28;20123;-73
2022/03/09 09:51:07;;;;;;;7.00;3.72;;;6.00;91.40;;;;;;5037514;28;20041;-73
2022/03/09 09:53:35;;;;;;;5.45;3.25;;;6.00;91.20;;;;;;5037521;28;20049;-71
2022/03/09 09:56:03;;;;;;;4.53;3.22;;;6.20;91.10;;;;;;5037456;28;20042;-78
2022/03/09 09:58:30;;;;;;;5.50;3.63;;;6.20;90.60;;;;;;5037335;28;20049;-74
2022/03/09 10:00:56;;;;;;;5.25;3.53;;;6.50;90.00;;;;;;5035760;28;20049;-72
2022/03/09 10:03:22;;;;;;;6.15;3.28;;;6.40;88.90;;;;;;5036377;28;20513;-66
2022/03/09 10:05:50;;;;;;;5.05;3.15;;;6.50;88.00;;;;;;5020607;28;20133;-68
2022/03/09 10:08:18;;;;;;;6.85;3.70;;;6.60;86.70;;;;;;5036990;28;20051;-71
2022/03/09 10:11:02;;;;;;;6.93;3.42;;;6.70;86.20;;;;;;5037187;28;20071;-68
2022/03/09 10:13:38;;;;;;;5.78;3.75;;;6.70;85.70;;;;;;5036872;28;20064;-72
2022/03/09 10:16:20;;;;;;;7.22;4.15;;;6.70;85.20;;;;;;5037143;28;20041;-75
2022/03/09 10:18:54;;;;;;;9.10;3.78;;;6.80;84.40;;;;;;5037484;28;20135;-74
2022/03/09 10:21:25;;;;;;;5.00;3.78;;;6.80;83.60;;;;;;5035949;28;20049;-74
2022/03/09 10:24:05;;;;;;;6.43;3.72;;;6.90;83.00;;;;;;5037332;28;20049;-74
2022/03/09 10:26:34;;;;;;;5.97;3.70;;;7.00;83.00;;;;;;5037583;28;20042;-75
2022/03/09 10:29:06;;;;;;;6.75;3.97;;;7.00;82.50;;;;;;5035630;28;20136;-74
2022/03/09 10:31:39;;;;;;;7.22;3.47;;;7.00;81.80;;;;;;5035335;28;20054;-74
2022/03/09 10:34:15;;;;;;;5.53;3.35;;;7.10;81.20;;;;;;5036281;28;20436;-73
2022/03/09 10:36:59;;;;;;;5.03;3.85;;;7.50;81.60;;;;;;5035604;28;20037;-75
2022/03/09 10:39:30;;;;;;;4.97;3.50;;;7.20;81.70;;;;;;5036759;28;20045;-74
2022/03/09 10:41:58;;;;;;;7.13;4.03;;;7.30;81.60;;;;;;5036619;28;20048;-74
2022/03/09 10:44:54;;;;;;;5.72;3.58;;;7.30;81.40;;;;;;5035344;28;20053;-73
2022/03/09 10:47:43;;;;;;;7.07;3.92;;;7.40;82.10;;;;;;5002330;28;20174;-72
2022/03/09 10:50:18;;;;;;;6.88;3.67;;;7.40;80.40;;;;;;5036464;28;20045;-75
2022/03/09 10:52:52;;;;;;;7.95;3.88;;;7.60;79.30;;;;;;5035778;28;20053;-73
2022/03/09 10:55:44;;;;;;;5.80;4.10;;;7.60;78.90;;;;;;5035854;28;20053;-73
2022/03/09 10:58:22;;;;;;;7.25;3.70;;;7.70;78.50;;;;;;5033447;28;20387;-74
2022/03/09 11:00:55;;;;;;;5.15;3.30;;;7.70;77.30;;;;;;5003252;28;20037;-74
2022/03/09 11:03:23;;;;;;;;;;;7.80;75.90;;;;;;5035743;28;20046;-74
2022/03/09 11:06:00;;;;;;;5.63;3.92;;;7.90;76.50;;;;;;5035992;28;20381;-73
2022/03/09 11:08:31;;;;;;;5.28;3.35;;;7.90;74.60;;;;;;5019391;28;20085;-73
2022/03/09 11:10:58;;;;;;;7.22;3.75;;;8.00;74.50;;;;;;5034901;28;20454;-74
2022/03/09 11:13:26;;;;;;;6.68;3.83;;;8.10;74.50;;;;;;5034935;28;20049;-75
2022/03/09 11:15:53;;;;;;;6.13;3.58;;;8.10;74.80;;;;;;5035582;28;20486;-76
2022/03/09 11:18:21;;;;;;;6.45;3.58;;;8.20;74.70;;;;;;5002304;28;20092;-74
2022/03/09 11:20:53;;;;;;;8.18;3.90;;;8.20;74.50;;;;;;5018212;28;20041;-75
2022/03/09 11:23:20;;;;;;;6.25;4.03;;;8.20;74.70;;;;;;5035490;28;20521;-75
2022/03/09 11:26:06;;;;;;;6.18;3.72;;;8.20;74.00;;;;;;5018503;28;20381;-75
2022/03/09 11:28:35;;;;;;;5.88;3.95;;;8.30;74.50;;;;;;5036881;28;20041;-75
2022/03/09 11:31:21;;;;;;;7.63;3.72;;;8.40;74.40;;;;;;5036189;28;20042;-75
2022/03/09 11:33:49;;;;;;;4.93;3.90;;;8.50;74.40;;;;;;5034252;28;20406;-75
2022/03/09 11:36:21;;;;;;;6.47;4.20;;;8.40;73.30;;;;;;5034797;28;20084;-74
2022/03/09 11:38:48;;;;;;;7.13;3.72;;;8.50;73.70;;;;;;5018344;28;20474;-75
2022/03/09 11:41:14;;;;;;;5.15;3.42;;;8.60;72.80;;;;;;5035646;28;20049;-74
2022/03/09 11:43:41;;;;;;;7.68;4.25;;;8.60;72.40;;;;;;5035918;28;20130;-75
2022/03/09 11:46:06;;;;;;;6.38;4.15;;;8.70;73.50;;;;;;5035679;28;20055;-75
2022/03/09 11:48:55;;;;;;;6.95;4.30;;;8.70;71.70;;;;;;5035475;28;20037;-75
2022/03/09 11:51:28;;;;;;;6.43;4.30;;;8.80;71.80;;;;;;5018133;28;20365;-74
2022/03/09 11:53:59;;;;;;;4.93;3.95;;;8.90;70.70;;;;;;5035498;28;20052;-75
2022/03/09 11:56:39;;;;;;;6.82;4.45;;;8.90;70.00;;;;;;5035418;28;20046;-73
2022/03/09 11:59:11;;;;;;;7.07;4.38;;;9.00;69.70;;;;;;5036264;28;20045;-73
2022/03/09 12:02:09;;;;;;;8.17;4.47;;;9.00;70.10;;;;;;5035276;28;20146;-73
2022/03/09 12:04:53;;;;;;;7.65;3.90;;;9.10;69.60;;;;;;5021498;28;20064;-72
2022/03/09 12:07:33;;;;;;;5.65;4.35;;;9.10;68.20;;;;;;5034366;28;20382;-72
2022/03/09 12:10:00;;;;;;;6.78;3.65;;;9.20;68.60;;;;;;5033724;28;20454;-72
2022/03/09 12:12:27;;;;;;;6.88;3.80;;;9.20;68.00;;;;;;5033761;28;20358;-72
2022/03/09 12:15:07;;;;;;;5.18;3.63;;;9.30;68.40;;;;;;5033806;28;20053;-72
2022/03/09 12:17:44;;;;;;;6.30;4.07;;;9.40;68.30;;;;;;5034119;28;20045;-73
2022/03/09 12:20:27;;;;;;;6.70;4.22;;;9.40;67.30;;;;;;5035110;28;20041;-73
2022/03/09 12:22:56;;;;;;;6.20;4.30;;;9.50;67.00;;;;;;5033975;28;20068;-73
2022/03/09 12:25:41;;;;;;;5.93;4.38;;;9.50;67.10;;;;;;5032193;28;20515;-72
2022/03/09 12:28:25;;;;;;;7.47;4.32;;;9.60;67.60;;;;;;5034639;28;20045;-74
2022/03/09 12:31:20;;;;;;;7.03;4.25;;;9.70;66.40;;;;;;5033748;28;20092;-74
2022/03/09 12:33:51;;;;;;;6.15;4.38;;;9.70;66.00;;;;;;5034695;28;20045;-72
2022/03/09 12:36:22;;;;;;;6.70;4.07;;;9.70;65.60;;;;;;5017164;28;20049;-73
2022/03/09 12:38:54;;;;;;;7.53;4.57;;;9.80;65.20;;;;;;5034646;28;20052;-73
2022/03/09 12:41:24;;;;;;;6.65;3.83;;;9.80;64.70;;;;;;5034424;28;20099;-72
2022/03/09 12:43:52;;;;;;;7.00;4.65;;;9.90;65.10;;;;;;5034452;28;20068;-72
2022/03/09 12:46:18;;;;;;;7.25;4.22;;;9.90;64.50;;;;;;5034465;28;20080;-72
2022/03/09 12:48:47;;;;;;;6.18;4.38;;;9.90;65.20;;;;;;5033720;28;20102;-72
2022/03/09 12:51:13;;;;;;;6.10;4.40;;;9.80;65.20;;;;;;5016693;28;20084;-73
2022/03/09 12:53:42;;;;;;;5.55;4.30;;;10.00;65.80;;;;;;5034093;28;20083;-72
2022/03/09 12:56:19;;;;;;;6.97;4.55;;;10.10;65.60;;;;;;5033233;28;20042;-72
2022/03/09 12:58:46;;;;;;;5.88;4.13;;;10.20;65.40;;;;;;5034172;28;20049;-72
2022/03/09 13:01:18;;;;;;;6.55;4.22;;;10.20;65.20;;;;;;5034914;28;20049;-73
2022/03/09 13:03:45;;;;;;;7.43;4.68;;;10.20;65.10;;;;;;5034726;28;20046;-73